Favola — IBFH — position and weather

sailwx.info

Track history (hours):
 
Tides and Currents Weather Stations Pressure Air Temp Water Temp Dewpoint Dewpoint Depression Visibility Wind Speed Wind Dir Waves Ship Positions

Favola

Last reported at 2015-Jan-27 06:31 UTC. Time now 2015-Feb-01 11:44 UTC.
Position N 38°48' E 025°09'.

Length 180 m; draft 9.7 m.

Type: Ship (hazmat cat A). MMSI: 247069800.

Date/timePositionNaut miles runAvg speedWind from/ knotsBaromVisibWave heightAir tempDewpointWater temp
2015-Jan-27 06:31N 38°48' E 025°09'5911.8
2015-Jan-27 01:33N 39°41' E 025°43'1611.8
2015-Jan-27 00:12N 39°55' E 025°53'  
2015-Jan-24 02:20N 43°28' E 034°46'1012.6
2015-Jan-24 01:33N 43°32' E 034°58'1312.7
2015-Jan-24 00:30N 43°38' E 035°14'1212.7
2015-Jan-23 23:33N 43°44' E 035°29'9012.7
2015-Jan-23 16:28N 44°25' E 037°20'1112.1
2015-Jan-23 15:33N 44°29' E 037°35'1312.6
2015-Jan-23 14:33N 44°37' E 037°48'6 5.4
2015-Jan-23 13:32N 44°43' E 037°50'0 0.0
2015-Jan-23 12:32N 44°43' E 037°50'0 0.0
2015-Jan-23 11:32N 44°43' E 037°50'0 0.0
2015-Jan-23 10:32N 44°43' E 037°50'0 0.0
2015-Jan-23 09:32N 44°43' E 037°50'0 0.0
2015-Jan-23 08:32N 44°43' E 037°50'0 0.0
2015-Jan-23 07:32N 44°43' E 037°50'0 0.0
2015-Jan-23 06:32N 44°43' E 037°50'0 0.0
2015-Jan-23 05:32N 44°43' E 037°50'0 0.0
2015-Jan-23 04:32N 44°43' E 037°50'0 0.0
2015-Jan-23 03:31N 44°43' E 037°50'0 0.0
2015-Jan-23 02:32N 44°43' E 037°50'0 0.0
2015-Jan-23 01:32N 44°43' E 037°50'0 0.0
2015-Jan-23 00:31N 44°43' E 037°50'0 0.0
2015-Jan-22 23:31N 44°43' E 037°50'0 0.0
2015-Jan-22 22:31N 44°43' E 037°50'0 0.0
2015-Jan-22 21:31N 44°43' E 037°50'0 0.0
2015-Jan-22 20:31N 44°43' E 037°50'0 0.0
2015-Jan-22 19:31N 44°43' E 037°50'0 0.0
2015-Jan-22 18:31N 44°43' E 037°50'0 0.0
2015-Jan-22 17:31N 44°43' E 037°50'0 0.0
2015-Jan-22 16:31N 44°43' E 037°50'0 0.0
2015-Jan-22 15:31N 44°43' E 037°50'0 0.0
2015-Jan-22 14:31N 44°43' E 037°50'0 0.0
2015-Jan-22 13:31N 44°43' E 037°50'0 0.0
2015-Jan-22 12:31N 44°43' E 037°50'0 0.0
2015-Jan-22 11:31N 44°43' E 037°50'0 0.0
2015-Jan-22 10:31N 44°43' E 037°50'0 0.0
2015-Jan-22 09:31N 44°43' E 037°50'0 0.0
2015-Jan-22 08:31N 44°43' E 037°50'0 0.0
2015-Jan-22 07:31N 44°43' E 037°50'0 0.0
2015-Jan-22 06:31N 44°43' E 037°50'0 0.0
2015-Jan-22 05:31N 44°43' E 037°50'0 0.0
2015-Jan-22 04:31N 44°43' E 037°50'0 0.0
2015-Jan-22 03:31N 44°43' E 037°50'0 0.0
2015-Jan-22 02:31N 44°43' E 037°50'0 0.0
2015-Jan-22 01:31N 44°43' E 037°50'0 0.0
2015-Jan-22 00:31N 44°43' E 037°50'0 0.0
2015-Jan-21 23:31N 44°43' E 037°50'0 0.0
2015-Jan-21 22:49N 44°43' E 037°50'0 0.0
2015-Jan-21 22:46N 44°43' E 037°50'0 0.0
2015-Jan-21 22:33N 44°43' E 037°50'2 2.4
2015-Jan-21 21:33N 44°40' E 037°50'1010.1
2015-Jan-21 20:33N 44°30' E 037°50'1212.1
2015-Jan-21 19:33N 44°20' E 037°41'2 1.4
2015-Jan-21 18:26N 44°20' E 037°39'1 0.7
2015-Jan-21 17:32N 44°20' E 037°38'0 0.4
2015-Jan-21 16:17N 44°20' E 037°38'0 0.3
2015-Jan-21 15:32N 44°20' E 037°37'0 0.4
2015-Jan-21 14:32N 44°20' E 037°37'1 0.6
2015-Jan-21 13:32N 44°19' E 037°37'1 0.6
2015-Jan-21 12:29N 44°19' E 037°38'0 0.5
2015-Jan-21 11:32N 44°18' E 037°38'6 5.8
2015-Jan-21 10:33N 44°23' E 037°42'2 2.0
2015-Jan-21 09:31N 44°25' E 037°42'1 0.9
2015-Jan-21 08:31N 44°25' E 037°41'1 1.2
2015-Jan-21 07:31N 44°24' E 037°40'1 1.0
2015-Jan-21 06:31N 44°23' E 037°39'1 0.8
2015-Jan-21 05:31N 44°22' E 037°38'1 0.9
2015-Jan-21 04:22N 44°21' E 037°38'3 0.9
2015-Jan-21 01:31N 44°19' E 037°38'1 0.7
2015-Jan-21 00:19N 44°18' E 037°38'1 0.5
2015-Jan-20 22:30N 44°17' E 037°38'1 0.7
2015-Jan-20 21:18N 44°16' E 037°37'2 2.8
2015-Jan-20 20:30N 44°18' E 037°35'6 4.9
2015-Jan-20 19:17N 44°23' E 037°31'1 1.6
2015-Jan-20 18:26N 44°22' E 037°31'2 1.7
2015-Jan-20 17:14N 44°20' E 037°33'2 2.1
2015-Jan-20 16:29N 44°19' E 037°34'4 1.9
2015-Jan-20 14:12N 44°16' E 037°38'5 8.3
2015-Jan-20 13:33N 44°19' E 037°32'6 5.3
2015-Jan-20 12:29N 44°22' E 037°25'2 1.8
2015-Jan-20 11:32N 44°21' E 037°27'2 2.0
2015-Jan-20 10:29N 44°20' E 037°29'2 2.1
2015-Jan-20 09:23N 44°18' E 037°32'2 2.2
2015-Jan-20 08:29N 44°17' E 037°34'2 1.9
2015-Jan-20 07:32N 44°15' E 037°35'2 1.6
2015-Jan-20 06:32N 44°14' E 037°37'5 2.3
2015-Jan-20 04:28N 44°18' E 037°34'3 1.4
2015-Jan-20 02:17N 44°21' E 037°33'1 1.3
2015-Jan-20 01:32N 44°21' E 037°34'2 1.5
2015-Jan-20 00:16N 44°19' E 037°35'5 1.3
2015-Jan-19 20:12N 44°23' E 037°40'3 3.6
2015-Jan-19 19:20N 44°26' E 037°40'1 1.0
2015-Jan-19 18:29N 44°25' E 037°41'1 1.1
2015-Jan-19 17:26N 44°24' E 037°42'1 1.2
2015-Jan-19 16:29N 44°23' E 037°43'2 1.3
2015-Jan-19 15:11N 44°22' E 037°44'1 1.2
2015-Jan-19 14:26N 44°21' E 037°45'1 1.0
2015-Jan-19 13:32N 44°21' E 037°46'9 8.9
2015-Jan-19 12:33N 44°27' E 037°55'1 1.0
2015-Jan-19 11:29N 44°27' E 037°53'1 1.2
2015-Jan-19 10:32N 44°26' E 037°52'1 1.2
2015-Jan-19 09:32N 44°26' E 037°51'1 1.2
2015-Jan-19 08:32N 44°25' E 037°50'1 1.2
2015-Jan-19 07:32N 44°24' E 037°49'1 1.2
2015-Jan-19 06:32N 44°23' E 037°48'1 1.2
2015-Jan-19 05:29N 44°22' E 037°48'1 1.2
2015-Jan-19 04:29N 44°20' E 037°47'4 4.2
2015-Jan-19 03:33N 44°22' E 037°42'9 8.5
2015-Jan-19 02:31N 44°28' E 037°34'2 1.6
2015-Jan-19 01:28N 44°27' E 037°35'2 1.7
2015-Jan-19 00:16N 44°25' E 037°36'1 1.7
2015-Jan-18 23:31N 44°24' E 037°37'2 1.8
2015-Jan-18 22:22N 44°22' E 037°39'2 2.0
2015-Jan-18 21:16N 44°21' E 037°42'0 0.4
2015-Jan-18 20:33N 44°21' E 037°42'8 7.7
2015-Jan-18 19:31N 44°29' E 037°41'1 1.1
2015-Jan-18 18:31N 44°28' E 037°42'1 1.1
2015-Jan-18 17:28N 44°27' E 037°43'1 1.1
2015-Jan-18 16:22N 44°26' E 037°44'1 1.1
2015-Jan-18 15:22N 44°25' E 037°44'1 1.2
2015-Jan-18 14:31N 44°24' E 037°45'1 1.3
2015-Jan-18 13:31N 44°23' E 037°46'1 1.3
2015-Jan-18 12:28N 44°22' E 037°47'1 1.4
2015-Jan-18 11:33N 44°21' E 037°45'10 9.8
2015-Jan-18 10:33N 44°20' E 037°32'3 3.1
2015-Jan-18 09:31N 44°20' E 037°27'2 1.5
2015-Jan-18 08:31N 44°19' E 037°29'1 1.3
2015-Jan-18 07:28N 44°18' E 037°31'1 1.2
2015-Jan-18 06:31N 44°18' E 037°32'1 1.1
2015-Jan-18 05:31N 44°18' E 037°34'2 0.9
2015-Jan-18 03:22N 44°18' E 037°36'1 0.6
2015-Jan-18 02:13N 44°18' E 037°37'0 0.4
2015-Jan-18 01:19N 44°18' E 037°38'0 0.4
2015-Jan-18 00:10N 44°18' E 037°38'0 0.4
2015-Jan-17 23:22N 44°18' E 037°38'0 0.2
2015-Jan-17 22:28N 44°19' E 037°38'0 0.1
2015-Jan-17 20:28N 44°19' E 037°39'0 0.1
2015-Jan-17 19:31N 44°19' E 037°39'1 0.3
2015-Jan-17 17:28N 44°20' E 037°39'1 0.9
2015-Jan-17 16:22N 44°20' E 037°40'1 0.9
2015-Jan-17 15:25N 44°21' E 037°40'1 0.7
2015-Jan-17 14:31N 44°21' E 037°41'1 0.5
2015-Jan-17 13:25N 44°22' E 037°42'0 0.4
2015-Jan-17 12:31N 44°22' E 037°42'2 1.8
2015-Jan-17 11:33N 44°20' E 037°41'1010.4
2015-Jan-17 10:34N 44°11' E 037°33'  
Track history (hours):
 
Tides and Currents Weather Stations Pressure Air Temp Water Temp Dewpoint Dewpoint Depression Visibility Wind Speed Wind Dir Waves Ship Positions

Favola

Last reported at 2015-Jan-27 06:31 UTC. Time now 2015-Feb-01 11:44 UTC.
Position N 38°48' E 025°09'.

Length 180 m; draft 9.7 m.

Type: Ship (hazmat cat A). MMSI: 247069800.

Date/timePositionNaut miles runAvg speedWind from/ knotsBaromVisibWave heightAir tempDewpointWater temp
2015-Jan-27 06:31N 38°48' E 025°09'5911.8
2015-Jan-27 01:33N 39°41' E 025°43'1611.8
2015-Jan-27 00:12N 39°55' E 025°53'  
2015-Jan-24 02:20N 43°28' E 034°46'1012.6
2015-Jan-24 01:33N 43°32' E 034°58'1312.7
2015-Jan-24 00:30N 43°38' E 035°14'1212.7
2015-Jan-23 23:33N 43°44' E 035°29'9012.7
2015-Jan-23 16:28N 44°25' E 037°20'1112.1
2015-Jan-23 15:33N 44°29' E 037°35'1312.6
2015-Jan-23 14:33N 44°37' E 037°48'6 5.4
2015-Jan-23 13:32N 44°43' E 037°50'0 0.0
2015-Jan-23 12:32N 44°43' E 037°50'0 0.0
2015-Jan-23 11:32N 44°43' E 037°50'0 0.0
2015-Jan-23 10:32N 44°43' E 037°50'0 0.0
2015-Jan-23 09:32N 44°43' E 037°50'0 0.0
2015-Jan-23 08:32N 44°43' E 037°50'0 0.0
2015-Jan-23 07:32N 44°43' E 037°50'0 0.0
2015-Jan-23 06:32N 44°43' E 037°50'0 0.0
2015-Jan-23 05:32N 44°43' E 037°50'0 0.0
2015-Jan-23 04:32N 44°43' E 037°50'0 0.0
2015-Jan-23 03:31N 44°43' E 037°50'0 0.0
2015-Jan-23 02:32N 44°43' E 037°50'0 0.0
2015-Jan-23 01:32N 44°43' E 037°50'0 0.0
2015-Jan-23 00:31N 44°43' E 037°50'0 0.0
2015-Jan-22 23:31N 44°43' E 037°50'0 0.0
2015-Jan-22 22:31N 44°43' E 037°50'0 0.0
2015-Jan-22 21:31N 44°43' E 037°50'0 0.0
2015-Jan-22 20:31N 44°43' E 037°50'0 0.0
2015-Jan-22 19:31N 44°43' E 037°50'0 0.0
2015-Jan-22 18:31N 44°43' E 037°50'0 0.0
2015-Jan-22 17:31N 44°43' E 037°50'0 0.0
2015-Jan-22 16:31N 44°43' E 037°50'0 0.0
2015-Jan-22 15:31N 44°43' E 037°50'0 0.0
2015-Jan-22 14:31N 44°43' E 037°50'0 0.0
2015-Jan-22 13:31N 44°43' E 037°50'0 0.0
2015-Jan-22 12:31N 44°43' E 037°50'0 0.0
2015-Jan-22 11:31N 44°43' E 037°50'0 0.0
2015-Jan-22 10:31N 44°43' E 037°50'0 0.0
2015-Jan-22 09:31N 44°43' E 037°50'0 0.0
2015-Jan-22 08:31N 44°43' E 037°50'0 0.0
2015-Jan-22 07:31N 44°43' E 037°50'0 0.0
2015-Jan-22 06:31N 44°43' E 037°50'0 0.0
2015-Jan-22 05:31N 44°43' E 037°50'0 0.0
2015-Jan-22 04:31N 44°43' E 037°50'0 0.0
2015-Jan-22 03:31N 44°43' E 037°50'0 0.0
2015-Jan-22 02:31N 44°43' E 037°50'0 0.0
2015-Jan-22 01:31N 44°43' E 037°50'0 0.0
2015-Jan-22 00:31N 44°43' E 037°50'0 0.0
2015-Jan-21 23:31N 44°43' E 037°50'0 0.0
2015-Jan-21 22:49N 44°43' E 037°50'0 0.0
2015-Jan-21 22:46N 44°43' E 037°50'0 0.0
2015-Jan-21 22:33N 44°43' E 037°50'2 2.4
2015-Jan-21 21:33N 44°40' E 037°50'1010.1
2015-Jan-21 20:33N 44°30' E 037°50'1212.1
2015-Jan-21 19:33N 44°20' E 037°41'2 1.4
2015-Jan-21 18:26N 44°20' E 037°39'1 0.7
2015-Jan-21 17:32N 44°20' E 037°38'0 0.4
2015-Jan-21 16:17N 44°20' E 037°38'0 0.3
2015-Jan-21 15:32N 44°20' E 037°37'0 0.4
2015-Jan-21 14:32N 44°20' E 037°37'1 0.6
2015-Jan-21 13:32N 44°19' E 037°37'1 0.6
2015-Jan-21 12:29N 44°19' E 037°38'0 0.5
2015-Jan-21 11:32N 44°18' E 037°38'6 5.8
2015-Jan-21 10:33N 44°23' E 037°42'2 2.0
2015-Jan-21 09:31N 44°25' E 037°42'1 0.9
2015-Jan-21 08:31N 44°25' E 037°41'1 1.2
2015-Jan-21 07:31N 44°24' E 037°40'1 1.0
2015-Jan-21 06:31N 44°23' E 037°39'1 0.8
2015-Jan-21 05:31N 44°22' E 037°38'1 0.9
2015-Jan-21 04:22N 44°21' E 037°38'3 0.9
2015-Jan-21 01:31N 44°19' E 037°38'1 0.7
2015-Jan-21 00:19N 44°18' E 037°38'1 0.5
2015-Jan-20 22:30N 44°17' E 037°38'1 0.7
2015-Jan-20 21:18N 44°16' E 037°37'2 2.8
2015-Jan-20 20:30N 44°18' E 037°35'6 4.9
2015-Jan-20 19:17N 44°23' E 037°31'1 1.6
2015-Jan-20 18:26N 44°22' E 037°31'2 1.7
2015-Jan-20 17:14N 44°20' E 037°33'2 2.1
2015-Jan-20 16:29N 44°19' E 037°34'4 1.9
2015-Jan-20 14:12N 44°16' E 037°38'5 8.3
2015-Jan-20 13:33N 44°19' E 037°32'6 5.3
2015-Jan-20 12:29N 44°22' E 037°25'2 1.8
2015-Jan-20 11:32N 44°21' E 037°27'2 2.0
2015-Jan-20 10:29N 44°20' E 037°29'2 2.1
2015-Jan-20 09:23N 44°18' E 037°32'2 2.2
2015-Jan-20 08:29N 44°17' E 037°34'2 1.9
2015-Jan-20 07:32N 44°15' E 037°35'2 1.6
2015-Jan-20 06:32N 44°14' E 037°37'5 2.3
2015-Jan-20 04:28N 44°18' E 037°34'3 1.4
2015-Jan-20 02:17N 44°21' E 037°33'1 1.3
2015-Jan-20 01:32N 44°21' E 037°34'2 1.5
2015-Jan-20 00:16N 44°19' E 037°35'5 1.3
2015-Jan-19 20:12N 44°23' E 037°40'3 3.6
2015-Jan-19 19:20N 44°26' E 037°40'1 1.0
2015-Jan-19 18:29N 44°25' E 037°41'1 1.1
2015-Jan-19 17:26N 44°24' E 037°42'1 1.2
2015-Jan-19 16:29N 44°23' E 037°43'2 1.3
2015-Jan-19 15:11N 44°22' E 037°44'1 1.2
2015-Jan-19 14:26N 44°21' E 037°45'1 1.0
2015-Jan-19 13:32N 44°21' E 037°46'9 8.9
2015-Jan-19 12:33N 44°27' E 037°55'1 1.0
2015-Jan-19 11:29N 44°27' E 037°53'1 1.2
2015-Jan-19 10:32N 44°26' E 037°52'1 1.2
2015-Jan-19 09:32N 44°26' E 037°51'1 1.2
2015-Jan-19 08:32N 44°25' E 037°50'1 1.2
2015-Jan-19 07:32N 44°24' E 037°49'1 1.2
2015-Jan-19 06:32N 44°23' E 037°48'1 1.2
2015-Jan-19 05:29N 44°22' E 037°48'1 1.2
2015-Jan-19 04:29N 44°20' E 037°47'4 4.2
2015-Jan-19 03:33N 44°22' E 037°42'9 8.5
2015-Jan-19 02:31N 44°28' E 037°34'2 1.6
2015-Jan-19 01:28N 44°27' E 037°35'2 1.7
2015-Jan-19 00:16N 44°25' E 037°36'1 1.7
2015-Jan-18 23:31N 44°24' E 037°37'2 1.8
2015-Jan-18 22:22N 44°22' E 037°39'2 2.0
2015-Jan-18 21:16N 44°21' E 037°42'0 0.4
2015-Jan-18 20:33N 44°21' E 037°42'8 7.7
2015-Jan-18 19:31N 44°29' E 037°41'1 1.1
2015-Jan-18 18:31N 44°28' E 037°42'1 1.1
2015-Jan-18 17:28N 44°27' E 037°43'1 1.1
2015-Jan-18 16:22N 44°26' E 037°44'1 1.1
2015-Jan-18 15:22N 44°25' E 037°44'1 1.2
2015-Jan-18 14:31N 44°24' E 037°45'1 1.3
2015-Jan-18 13:31N 44°23' E 037°46'1 1.3
2015-Jan-18 12:28N 44°22' E 037°47'1 1.4
2015-Jan-18 11:33N 44°21' E 037°45'10 9.8
2015-Jan-18 10:33N 44°20' E 037°32'3 3.1
2015-Jan-18 09:31N 44°20' E 037°27'2 1.5
2015-Jan-18 08:31N 44°19' E 037°29'1 1.3
2015-Jan-18 07:28N 44°18' E 037°31'1 1.2
2015-Jan-18 06:31N 44°18' E 037°32'1 1.1
2015-Jan-18 05:31N 44°18' E 037°34'2 0.9
2015-Jan-18 03:22N 44°18' E 037°36'1 0.6
2015-Jan-18 02:13N 44°18' E 037°37'0 0.4
2015-Jan-18 01:19N 44°18' E 037°38'0 0.4
2015-Jan-18 00:10N 44°18' E 037°38'0 0.4
2015-Jan-17 23:22N 44°18' E 037°38'0 0.2
2015-Jan-17 22:28N 44°19' E 037°38'0 0.1
2015-Jan-17 20:28N 44°19' E 037°39'0 0.1
2015-Jan-17 19:31N 44°19' E 037°39'1 0.3
2015-Jan-17 17:28N 44°20' E 037°39'1 0.9
2015-Jan-17 16:22N 44°20' E 037°40'1 0.9
2015-Jan-17 15:25N 44°21' E 037°40'1 0.7
2015-Jan-17 14:31N 44°21' E 037°41'1 0.5
2015-Jan-17 13:25N 44°22' E 037°42'0 0.4
2015-Jan-17 12:31N 44°22' E 037°42'2 1.8
2015-Jan-17 11:33N 44°20' E 037°41'1010.4
2015-Jan-17 10:34N 44°11' E 037°33'  

Dump ship's entire track history